Time;durP1;ratioP1;P1;durP2;ratioP2;P2;SDS_P1;SDS_P2;PMS_P1;PMS_P2;Temp;Humidity;BMP_temperature;BMP_pressure;BME280_temperature;BME280_humidity;BME280_pressure;Samples;Min_cycle;Max_cycle;Signal;HPM_P1;HPM_P2
2022/01/02 00:01:30;;;;;;;61.53;25.90;;;;;;;;;;6263247;28;20064;-59
2022/01/02 00:04:35;;;;;;;59.85;26.55;;;;;;;;;;6265176;28;20095;-59
2022/01/02 00:07:56;;;;;;;58.53;27.95;;;;;;;;;;6267908;28;20067;-58
2022/01/02 00:10:59;;;;;;;70.80;29.10;;;;;;;;;;6268203;28;20850;-59
2022/01/02 00:14:11;;;;;;;;;;;;;;;;;;6264364;28;20053;-57
2022/01/02 00:17:13;;;;;;;65.78;28.92;;;;;;;;;;6266175;28;20677;-58
2022/01/02 00:20:19;;;;;;;68.18;30.08;;;;;;;;;;6269538;28;20064;-59
2022/01/02 00:23:23;;;;;;;62.10;27.63;;;;;;;;;;6262472;28;20079;-59
2022/01/02 00:26:34;;;;;;;65.35;28.85;;;;;;;;;;6266501;28;20130;-60
2022/01/02 00:29:38;;;;;;;66.63;29.00;;;;;;;;;;6267855;28;20076;-58
2022/01/02 00:32:43;;;;;;;68.93;28.98;;;;;;;;;;6249930;28;20049;-59
2022/01/02 00:35:44;;;;;;;64.35;28.63;;;;;;;;;;6268568;28;20064;-58
2022/01/02 00:38:45;;;;;;;65.80;28.75;;;;;;;;;;6269811;28;20049;-59
2022/01/02 00:41:53;;;;;;;66.10;29.35;;;;;;;;;;6272002;28;20411;-59
2022/01/02 00:45:00;;;;;;;69.80;30.10;;;;;;;;;;6271443;28;20056;-60
2022/01/02 00:48:13;;;;;;;67.55;29.77;;;;;;;;;;6268624;28;20175;-59
2022/01/02 00:51:19;;;;;;;74.00;30.67;;;;;;;;;;6269767;28;20427;-59
2022/01/02 00:54:27;;;;;;;65.88;29.88;;;;;;;;;;6267140;28;20121;-59
2022/01/02 00:57:36;;;;;;;71.13;30.83;;;;;;;;;;6269141;28;20052;-59
2022/01/02 01:00:44;;;;;;;79.53;35.35;;;;;;;;;;6272793;28;20065;-56
2022/01/02 01:03:46;;;;;;;70.97;31.33;;;;;;;;;;6267585;28;20041;-59
2022/01/02 01:06:49;;;;;;;74.45;31.80;;;;;;;;;;6268245;28;20122;-60
2022/01/02 01:09:53;;;;;;;70.25;30.42;;;;;;;;;;6268008;28;20057;-59
2022/01/02 01:12:57;;;;;;;73.22;30.90;;;;;;;;;;6266860;28;20064;-60
2022/01/02 01:15:58;;;;;;;72.32;31.20;;;;;;;;;;6268481;28;20081;-58
2022/01/02 01:18:59;;;;;;;63.58;28.77;;;;;;;;;;6264968;28;20056;-60
2022/01/02 01:21:59;;;;;;;67.55;30.58;;;;;;;;;;6269124;28;20049;-59
2022/01/02 01:25:00;;;;;;;65.82;28.02;;;;;;;;;;6271945;28;20139;-58
2022/01/02 01:28:01;;;;;;;66.22;29.20;;;;;;;;;;6266784;28;20048;-57
2022/01/02 01:31:03;;;;;;;67.53;30.00;;;;;;;;;;6269771;28;20084;-56
2022/01/02 01:34:04;;;;;;;69.60;30.25;;;;;;;;;;6270093;28;20147;-57
2022/01/02 01:37:05;;;;;;;75.93;32.72;;;;;;;;;;6267951;28;20586;-56
2022/01/02 01:40:07;;;;;;;72.38;33.53;;;;;;;;;;6268661;28;20056;-57
2022/01/02 01:43:12;;;;;;;71.28;31.60;;;;;;;;;;6268004;28;20053;-59
2022/01/02 01:46:13;;;;;;;76.18;31.13;;;;;;;;;;6266946;28;20158;-60
2022/01/02 01:49:24;;;;;;;71.05;31.63;;;;;;;;;;6266048;28;20127;-60
2022/01/02 01:52:24;;;;;;;74.53;32.08;;;;;;;;;;6270118;28;20045;-57
2022/01/02 01:55:25;;;;;;;68.65;30.77;;;;;;;;;;6270177;28;20060;-60
2022/01/02 01:58:26;;;;;;;70.53;32.40;;;;;;;;;;6269751;28;20040;-56
2022/01/02 02:01:26;;;;;;;64.18;29.42;;;;;;;;;;6271579;28;20056;-57
2022/01/02 02:04:28;;;;;;;63.97;27.55;;;;;;;;;;6273030;28;20190;-58
2022/01/02 02:07:38;;;;;;;64.43;28.60;;;;;;;;;;6267448;28;20081;-57
2022/01/02 02:10:40;;;;;;;63.20;29.88;;;;;;;;;;6267274;28;20052;-59
2022/01/02 02:13:44;;;;;;;67.28;28.08;;;;;;;;;;6265053;28;20045;-58
2022/01/02 02:16:45;;;;;;;63.65;28.45;;;;;;;;;;6269209;28;20048;-59
2022/01/02 02:19:49;;;;;;;60.00;27.73;;;;;;;;;;6268898;28;20907;-60
2022/01/02 02:22:53;;;;;;;61.75;27.70;;;;;;;;;;6267802;28;20408;-58
2022/01/02 02:25:53;;;;;;;63.78;30.30;;;;;;;;;;6272764;28;20049;-56
2022/01/02 02:28:54;;;;;;;59.60;26.85;;;;;;;;;;6265909;28;20061;-58
2022/01/02 02:31:56;;;;;;;56.55;27.10;;;;;;;;;;6269056;28;20490;-57
2022/01/02 02:34:57;;;;;;;60.25;28.35;;;;;;;;;;6273815;28;20132;-56
2022/01/02 02:37:58;;;;;;;61.15;27.05;;;;;;;;;;6265704;28;20499;-59
2022/01/02 02:40:59;;;;;;;62.33;28.63;;;;;;;;;;6267572;28;20076;-59
2022/01/02 02:44:20;;;;;;;59.75;29.17;;;;;;;;;;6263305;28;20057;-58
2022/01/02 02:50:45;;;;;;;59.13;28.25;;;;;;;;;;6271377;28;20052;-58
2022/01/02 02:53:48;;;;;;;60.03;28.33;;;;;;;;;;6270147;28;20544;-59
2022/01/02 02:56:56;;;;;;;62.38;30.77;;;;;;;;;;6268801;28;20436;-59
2022/01/02 02:59:56;;;;;;;58.22;29.58;;;;;;;;;;6270293;28;20566;-60
2022/01/02 03:02:57;;;;;;;62.42;31.23;;;;;;;;;;6264355;28;20053;-60
2022/01/02 03:05:57;;;;;;;60.15;29.67;;;;;;;;;;6266947;28;20145;-60
2022/01/02 03:09:05;;;;;;;55.80;29.83;;;;;;;;;;6270650;28;20057;-58
2022/01/02 03:12:08;;;;;;;54.85;27.73;;;;;;;;;;6265414;28;20807;-60
2022/01/02 03:15:09;;;;;;;52.72;26.73;;;;;;;;;;6266695;28;20092;-59
2022/01/02 03:18:09;;;;;;;51.97;25.13;;;;;;;;;;6269894;28;20063;-59
2022/01/02 03:21:10;;;;;;;52.08;26.00;;;;;;;;;;6263835;28;20045;-60
2022/01/02 03:24:11;;;;;;;49.00;23.88;;;;;;;;;;6263188;28;20049;-59
2022/01/02 03:27:12;;;;;;;47.85;23.27;;;;;;;;;;6268502;28;20478;-60
2022/01/02 03:30:13;;;;;;;47.50;25.23;;;;;;;;;;6266065;28;21161;-58
2022/01/02 03:33:14;;;;;;;51.28;23.25;;;;;;;;;;6265412;28;20091;-60
2022/01/02 03:36:15;;;;;;;54.40;25.10;;;;;;;;;;6266944;28;20044;-59
2022/01/02 03:39:15;;;;;;;52.90;23.45;;;;;;;;;;6264776;28;20060;-59
2022/01/02 03:42:16;;;;;;;46.80;23.27;;;;;;;;;;6263751;28;20051;-57
2022/01/02 03:45:17;;;;;;;47.20;22.92;;;;;;;;;;6268679;28;20118;-58
2022/01/02 03:48:18;;;;;;;45.92;22.65;;;;;;;;;;6264594;28;20053;-58
2022/01/02 03:51:18;;;;;;;45.28;22.10;;;;;;;;;;6263233;28;20543;-58
2022/01/02 03:54:19;;;;;;;46.55;22.80;;;;;;;;;;6262921;28;20047;-57
2022/01/02 03:57:20;;;;;;;42.75;21.70;;;;;;;;;;6267451;28;20525;-58
2022/01/02 04:00:21;;;;;;;51.05;23.67;;;;;;;;;;6266404;28;20468;-59
2022/01/02 04:03:22;;;;;;;44.30;21.63;;;;;;;;;;6265269;28;20048;-57
2022/01/02 04:06:22;;;;;;;43.47;21.20;;;;;;;;;;6265445;28;20127;-58
2022/01/02 04:09:23;;;;;;;42.20;21.33;;;;;;;;;;6265007;28;20045;-57
2022/01/02 04:12:23;;;;;;;44.75;22.40;;;;;;;;;;6262148;28;20044;-58
2022/01/02 04:15:24;;;;;;;48.50;23.05;;;;;;;;;;6265617;28;20060;-58
2022/01/02 04:18:25;;;;;;;42.42;20.73;;;;;;;;;;6265093;28;20052;-59
2022/01/02 04:21:25;;;;;;;41.15;20.33;;;;;;;;;;6267413;28;20056;-57
2022/01/02 04:24:26;;;;;;;44.05;20.95;;;;;;;;;;6263761;28;20041;-59
2022/01/02 04:27:27;;;;;;;39.95;20.27;;;;;;;;;;6265203;28;20588;-58
2022/01/02 04:30:27;;;;;;;40.70;19.67;;;;;;;;;;6273494;28;20056;-59
2022/01/02 04:33:28;;;;;;;42.55;21.17;;;;;;;;;;6281124;28;20055;-59
2022/01/02 04:36:29;;;;;;;41.53;20.13;;;;;;;;;;6289926;28;20052;-59
2022/01/02 04:39:30;;;;;;;37.63;20.33;;;;;;;;;;6287036;28;20464;-59
2022/01/02 04:42:31;;;;;;;40.08;20.40;;;;;;;;;;6288669;28;20487;-59
2022/01/02 04:45:31;;;;;;;42.10;20.58;;;;;;;;;;6288356;28;20114;-58
2022/01/02 04:48:32;;;;;;;38.55;19.50;;;;;;;;;;6290855;28;20544;-58
2022/01/02 04:51:33;;;;;;;40.15;21.05;;;;;;;;;;6282334;28;20450;-59
2022/01/02 04:54:33;;;;;;;44.28;21.35;;;;;;;;;;6278266;28;20056;-59
2022/01/02 04:57:34;;;;;;;43.00;22.02;;;;;;;;;;6273584;28;20053;-59
2022/01/02 05:00:35;;;;;;;42.95;21.55;;;;;;;;;;6271770;28;20147;-59
2022/01/02 05:03:36;;;;;;;43.08;20.95;;;;;;;;;;6278879;28;20420;-59
2022/01/02 05:06:36;;;;;;;40.33;20.63;;;;;;;;;;6277457;28;20132;-60
2022/01/02 05:09:37;;;;;;;38.85;19.60;;;;;;;;;;6270989;28;20411;-59
2022/01/02 05:12:37;;;;;;;44.67;21.52;;;;;;;;;;6278664;28;20472;-59
2022/01/02 05:15:38;;;;;;;44.35;22.20;;;;;;;;;;6277397;28;20052;-57
2022/01/02 05:18:39;;;;;;;42.22;20.50;;;;;;;;;;6278737;28;20463;-56
2022/01/02 05:21:40;;;;;;;40.25;20.48;;;;;;;;;;6277914;28;20040;-59
2022/01/02 05:24:40;;;;;;;41.15;20.20;;;;;;;;;;6279136;28;20086;-58
2022/01/02 05:27:41;;;;;;;40.53;19.65;;;;;;;;;;6276241;28;20044;-59
2022/01/02 05:30:42;;;;;;;38.47;19.13;;;;;;;;;;6279458;28;20044;-59
2022/01/02 05:33:43;;;;;;;43.47;20.60;;;;;;;;;;6282511;28;20056;-59
2022/01/02 05:36:48;;;;;;;46.42;23.70;;;;;;;;;;6280837;28;20131;-59
2022/01/02 05:39:49;;;;;;;48.90;25.42;;;;;;;;;;6279693;28;20084;-59
2022/01/02 05:42:50;;;;;;;46.40;26.00;;;;;;;;;;6282786;28;20059;-58
2022/01/02 05:45:52;;;;;;;51.20;27.45;;;;;;;;;;6278054;28;20706;-59
2022/01/02 05:48:52;;;;;;;52.28;26.98;;;;;;;;;;6283044;28;20075;-59
2022/01/02 05:51:53;;;;;;;69.80;34.63;;;;;;;;;;6277931;28;20049;-58
2022/01/02 05:54:54;;;;;;;64.82;33.53;;;;;;;;;;6281906;28;20044;-59
2022/01/02 05:57:54;;;;;;;64.95;32.53;;;;;;;;;;6281927;28;20407;-59
2022/01/02 06:00:55;;;;;;;76.82;35.78;;;;;;;;;;6279036;28;20059;-59
2022/01/02 06:03:56;;;;;;;65.88;33.47;;;;;;;;;;6281073;28;20064;-58
2022/01/02 06:06:56;;;;;;;76.28;33.85;;;;;;;;;;6278972;28;20181;-59
2022/01/02 06:09:57;;;;;;;77.38;33.88;;;;;;;;;;6279867;28;20047;-58
2022/01/02 06:12:57;;;;;;;77.88;34.05;;;;;;;;;;6285392;28;20465;-61
2022/01/02 06:15:58;;;;;;;66.30;31.65;;;;;;;;;;6282058;28;20048;-59
2022/01/02 06:18:59;;;;;;;71.20;32.15;;;;;;;;;;6285879;28;20074;-61
2022/01/02 06:22:01;;;;;;;63.63;30.95;;;;;;;;;;6281050;28;20480;-61
2022/01/02 06:25:01;;;;;;;53.60;26.97;;;;;;;;;;6280352;28;20037;-58
2022/01/02 06:28:02;;;;;;;51.28;23.40;;;;;;;;;;6274792;28;20375;-58
2022/01/02 06:31:03;;;;;;;55.92;23.40;;;;;;;;;;6275206;28;20143;-60
2022/01/02 06:34:04;;;;;;;50.83;25.15;;;;;;;;;;6275644;28;20515;-60
2022/01/02 06:37:05;;;;;;;68.53;27.25;;;;;;;;;;6277894;28;20067;-60
2022/01/02 06:40:06;;;;;;;80.15;29.85;;;;;;;;;;6278986;28;20162;-60
2022/01/02 06:43:07;;;;;;;65.60;31.17;;;;;;;;;;6281661;28;20045;-60
2022/01/02 06:46:08;;;;;;;72.18;34.53;;;;;;;;;;6281226;28;20884;-60
2022/01/02 06:49:09;;;;;;;69.65;34.40;;;;;;;;;;6281981;28;20473;-59
2022/01/02 06:52:10;;;;;;;98.60;38.85;;;;;;;;;;6281058;28;20051;-60
2022/01/02 06:55:10;;;;;;;99.70;42.40;;;;;;;;;;6278743;28;20423;-59
2022/01/02 06:58:11;;;;;;;116.97;45.50;;;;;;;;;;6278560;28;20092;-60
2022/01/02 07:01:12;;;;;;;103.78;43.38;;;;;;;;;;6280526;28;20177;-60
2022/01/02 07:04:12;;;;;;;132.15;41.92;;;;;;;;;;6279560;28;20759;-59
2022/01/02 07:07:13;;;;;;;196.60;43.65;;;;;;;;;;6279826;28;20075;-59
2022/01/02 07:10:15;;;;;;;96.20;41.30;;;;;;;;;;6273137;28;20758;-60
2022/01/02 07:13:16;;;;;;;101.22;33.63;;;;;;;;;;6259694;28;20098;-60
2022/01/02 07:16:16;;;;;;;87.55;29.17;;;;;;;;;;6282381;28;20041;-59
2022/01/02 07:19:17;;;;;;;107.05;28.48;;;;;;;;;;6276908;28;20102;-60
2022/01/02 07:22:18;;;;;;;127.90;29.73;;;;;;;;;;6278424;28;20044;-60
2022/01/02 07:25:18;;;;;;;140.80;28.90;;;;;;;;;;6277813;28;20562;-59
2022/01/02 07:28:21;;;;;;;143.93;28.70;;;;;;;;;;6278842;28;20175;-58
2022/01/02 07:31:21;;;;;;;;;;;;;;;;;;6283590;28;20049;-60
2022/01/02 07:34:22;;;;;;;122.75;29.58;;;;;;;;;;6281623;28;20861;-60
2022/01/02 07:37:22;;;;;;;128.98;28.48;;;;;;;;;;6275317;28;20148;-59
2022/01/02 07:40:26;;;;;;;91.38;27.83;;;;;;;;;;6277472;28;20083;-61
2022/01/02 07:43:26;;;;;;;95.18;27.98;;;;;;;;;;6285574;28;20053;-60
2022/01/02 07:46:27;;;;;;;94.15;31.40;;;;;;;;;;6279190;28;20141;-60
2022/01/02 07:49:28;;;;;;;113.32;42.40;;;;;;;;;;6278945;28;20438;-59
2022/01/02 07:52:28;;;;;;;108.25;41.13;;;;;;;;;;6274828;28;20131;-59
2022/01/02 07:55:29;;;;;;;137.40;48.90;;;;;;;;;;6288927;28;20159;-60
2022/01/02 07:58:30;;;;;;;102.95;36.78;;;;;;;;;;6289352;28;20044;-60
2022/01/02 08:01:31;;;;;;;85.32;37.05;;;;;;;;;;6287016;28;20090;-60
2022/01/02 08:04:31;;;;;;;101.00;35.40;;;;;;;;;;6286320;28;20468;-60
2022/01/02 08:07:32;;;;;;;86.28;37.35;;;;;;;;;;6283416;28;20124;-59
2022/01/02 08:10:33;;;;;;;86.57;38.03;;;;;;;;;;6284949;28;20411;-60
2022/01/02 08:13:34;;;;;;;87.97;38.17;;;;;;;;;;6279647;28;20068;-60
2022/01/02 08:16:35;;;;;;;79.47;35.92;;;;;;;;;;6282870;28;20051;-60
2022/01/02 08:19:35;;;;;;;67.10;34.88;;;;;;;;;;6286795;28;20045;-59
2022/01/02 08:22:36;;;;;;;62.35;34.88;;;;;;;;;;6288489;28;20136;-60
2022/01/02 08:25:36;;;;;;;67.13;33.95;;;;;;;;;;6280177;28;20136;-60
2022/01/02 08:28:37;;;;;;;52.20;28.48;;;;;;;;;;6283230;28;20502;-60
2022/01/02 08:31:40;;;;;;;53.60;31.05;;;;;;;;;;6276915;28;20045;-61
2022/01/02 08:34:40;;;;;;;57.00;32.63;;;;;;;;;;6279814;28;20472;-60
2022/01/02 08:37:41;;;;;;;57.28;32.55;;;;;;;;;;6290435;28;20044;-61
2022/01/02 08:40:42;;;;;;;57.13;31.67;;;;;;;;;;6290077;28;20044;-60
2022/01/02 08:43:43;;;;;;;61.85;32.40;;;;;;;;;;6291372;28;20132;-61
2022/01/02 08:46:44;;;;;;;66.57;34.35;;;;;;;;;;6281970;28;20045;-59
2022/01/02 08:49:44;;;;;;;59.22;31.88;;;;;;;;;;6286231;28;20075;-61
2022/01/02 08:52:45;;;;;;;62.65;34.45;;;;;;;;;;6283879;28;20424;-55
2022/01/02 08:55:46;;;;;;;57.80;30.40;;;;;;;;;;6293412;28;20041;-59
2022/01/02 08:58:46;;;;;;;50.22;25.20;;;;;;;;;;6281984;28;20048;-59
2022/01/02 09:01:47;;;;;;;39.33;20.67;;;;;;;;;;6290719;28;20140;-60
2022/01/02 09:04:48;;;;;;;38.55;19.23;;;;;;;;;;6278848;28;20040;-60
2022/01/02 09:07:48;;;;;;;40.33;20.15;;;;;;;;;;6283464;28;20140;-60
2022/01/02 09:10:49;;;;;;;34.58;18.40;;;;;;;;;;6283035;28;20055;-60
2022/01/02 09:13:50;;;;;;;27.67;15.90;;;;;;;;;;6279149;28;20135;-59
2022/01/02 09:16:50;;;;;;;25.45;13.73;;;;;;;;;;6281461;28;20110;-61
2022/01/02 09:19:52;;;;;;;28.15;15.57;;;;;;;;;;6277956;28;20062;-61
2022/01/02 09:22:54;;;;;;;28.08;14.60;;;;;;;;;;6276669;28;20045;-61
2022/01/02 09:25:54;;;;;;;27.87;17.17;;;;;;;;;;6278380;28;20045;-60
2022/01/02 09:28:55;;;;;;;21.73;12.77;;;;;;;;;;6279722;28;20455;-61
2022/01/02 09:31:56;;;;;;;25.45;14.20;;;;;;;;;;6275868;28;20046;-60
2022/01/02 09:34:57;;;;;;;19.88;11.52;;;;;;;;;;6280435;28;20048;-61
2022/01/02 09:37:57;;;;;;;21.95;12.13;;;;;;;;;;6280255;28;20159;-60
2022/01/02 09:41:00;;;;;;;17.95;10.77;;;;;;;;;;6282553;28;20049;-61
2022/01/02 09:44:01;;;;;;;16.88;9.43;;;;;;;;;;6280870;28;20056;-60
2022/01/02 09:47:02;;;;;;;18.15;10.00;;;;;;;;;;6279402;28;20143;-60
2022/01/02 09:50:07;;;;;;;21.25;10.45;;;;;;;;;;6283509;28;20499;-60
2022/01/02 09:53:08;;;;;;;24.33;11.07;;;;;;;;;;6278379;28;20078;-60
2022/01/02 09:56:09;;;;;;;20.02;10.13;;;;;;;;;;6281578;28;20053;-60
2022/01/02 09:59:10;;;;;;;18.63;9.88;;;;;;;;;;6278484;28;20174;-60
2022/01/02 10:02:10;;;;;;;18.65;10.10;;;;;;;;;;6278375;28;20044;-60
2022/01/02 10:05:11;;;;;;;18.70;9.73;;;;;;;;;;6278563;28;20075;-60
2022/01/02 10:08:22;;;;;;;21.17;9.95;;;;;;;;;;6279055;28;20082;-61
2022/01/02 10:11:24;;;;;;;17.58;8.70;;;;;;;;;;6275183;28;20053;-60
2022/01/02 10:14:25;;;;;;;17.33;9.07;;;;;;;;;;6274742;28;20137;-61
2022/01/02 10:17:25;;;;;;;16.35;8.75;;;;;;;;;;6281838;28;20131;-60
2022/01/02 10:20:31;;;;;;;18.10;9.07;;;;;;;;;;6273832;28;20041;-61
2022/01/02 10:23:31;;;;;;;16.42;9.05;;;;;;;;;;6282121;28;20437;-60
2022/01/02 10:26:32;;;;;;;17.33;9.20;;;;;;;;;;6281336;28;20052;-61
2022/01/02 10:29:56;;;;;;;16.55;8.98;;;;;;;;;;6279796;28;20049;-60
2022/01/02 10:32:56;;;;;;;17.33;9.75;;;;;;;;;;6277510;28;20044;-60
2022/01/02 10:36:04;;;;;;;16.63;8.15;;;;;;;;;;6278627;28;20102;-60
2022/01/02 10:39:08;;;;;;;15.15;7.80;;;;;;;;;;6282377;28;20491;-60
2022/01/02 10:42:16;;;;;;;16.23;8.85;;;;;;;;;;6277404;28;20048;-60
2022/01/02 10:45:42;;;;;;;19.17;9.00;;;;;;;;;;6273956;28;20049;-60
2022/01/02 10:48:43;;;;;;;16.27;8.10;;;;;;;;;;6278235;28;20510;-60
2022/01/02 10:51:44;;;;;;;15.80;8.10;;;;;;;;;;6279073;28;20040;-60
2022/01/02 10:54:45;;;;;;;16.65;8.90;;;;;;;;;;6277355;28;20544;-61
2022/01/02 10:57:51;;;;;;;16.33;7.50;;;;;;;;;;6276925;28;20560;-60
2022/01/02 11:00:53;;;;;;;13.25;7.35;;;;;;;;;;6275685;28;20080;-60
2022/01/02 11:03:54;;;;;;;14.93;7.05;;;;;;;;;;6279026;28;20083;-62
2022/01/02 11:06:54;;;;;;;13.60;7.53;;;;;;;;;;6277921;28;20916;-61
2022/01/02 11:09:55;;;;;;;16.25;8.75;;;;;;;;;;6275796;28;20139;-59
2022/01/02 11:12:57;;;;;;;20.13;11.90;;;;;;;;;;6276651;28;20077;-60
2022/01/02 11:16:01;;;;;;;15.30;8.80;;;;;;;;;;6275531;28;20617;-60
2022/01/02 11:19:01;;;;;;;16.20;7.97;;;;;;;;;;6278442;28;20087;-60
2022/01/02 11:22:04;;;;;;;14.93;8.15;;;;;;;;;;6276761;28;20049;-59
2022/01/02 11:25:12;;;;;;;15.50;7.97;;;;;;;;;;6273980;28;20495;-60
2022/01/02 11:28:40;;;;;;;14.73;7.28;;;;;;;;;;6286538;28;20052;-60
2022/01/02 11:31:43;;;;;;;14.45;7.50;;;;;;;;;;6275921;28;20472;-59
2022/01/02 11:34:46;;;;;;;16.25;7.18;;;;;;;;;;6280151;28;20153;-60
2022/01/02 11:37:53;;;;;;;13.40;6.63;;;;;;;;;;6280432;28;20087;-60
2022/01/02 11:40:56;;;;;;;15.27;6.95;;;;;;;;;;6275417;28;20102;-60
2022/01/02 11:43:57;;;;;;;13.35;6.82;;;;;;;;;;6273217;28;20083;-60
2022/01/02 11:46:59;;;;;;;11.63;6.10;;;;;;;;;;6272076;28;20411;-59
2022/01/02 11:49:59;;;;;;;11.57;6.07;;;;;;;;;;6276232;28;20067;-60
2022/01/02 11:53:09;;;;;;;14.00;6.03;;;;;;;;;;6278618;28;20052;-60
2022/01/02 11:56:33;;;;;;;15.20;7.32;;;;;;;;;;6274264;28;20057;-60
2022/01/02 11:59:40;;;;;;;12.88;7.28;;;;;;;;;;6276921;28;20052;-62
2022/01/02 12:02:41;;;;;;;13.05;6.60;;;;;;;;;;6274945;28;20064;-59
2022/01/02 12:06:19;;;;;;;11.02;6.28;;;;;;;;;;6278282;28;20048;-59
2022/01/02 12:09:38;;;;;;;10.93;6.10;;;;;;;;;;6279057;28;20523;-59
2022/01/02 12:13:05;;;;;;;13.95;6.15;;;;;;;;;;6275050;28;20044;-59
2022/01/02 12:16:07;;;;;;;11.40;6.25;;;;;;;;;;6278142;28;20075;-61
2022/01/02 12:19:09;;;;;;;12.48;6.57;;;;;;;;;;6284847;28;20052;-59
2022/01/02 12:22:15;;;;;;;15.45;7.50;;;;;;;;;;6274277;28;20048;-60
2022/01/02 12:25:18;;;;;;;12.00;6.22;;;;;;;;;;6276535;28;20082;-60
2022/01/02 12:28:19;;;;;;;13.23;6.80;;;;;;;;;;6274862;28;20048;-59
2022/01/02 12:31:20;;;;;;;11.27;5.78;;;;;;;;;;6282792;28;20462;-59
2022/01/02 12:34:22;;;;;;;10.75;5.45;;;;;;;;;;6277875;28;20128;-59
2022/01/02 12:37:29;;;;;;;10.45;5.25;;;;;;;;;;6280434;28;20056;-60
2022/01/02 12:40:37;;;;;;;10.85;5.55;;;;;;;;;;6281632;28;20049;-59
2022/01/02 12:43:39;;;;;;;10.40;4.90;;;;;;;;;;6289578;28;20048;-60
2022/01/02 12:46:48;;;;;;;11.05;5.88;;;;;;;;;;6296483;28;20041;-60
2022/01/02 12:49:49;;;;;;;12.98;6.20;;;;;;;;;;6285052;28;20045;-60
2022/01/02 12:52:52;;;;;;;10.20;5.32;;;;;;;;;;6281735;28;20063;-60
2022/01/02 12:55:57;;;;;;;10.13;5.55;;;;;;;;;;6278996;28;20063;-59
2022/01/02 12:59:25;;;;;;;11.75;5.60;;;;;;;;;;6285018;28;20044;-60
2022/01/02 13:02:28;;;;;;;9.73;5.25;;;;;;;;;;6281194;28;20056;-61
2022/01/02 13:05:29;;;;;;;7.75;4.93;;;;;;;;;;6280780;28;20057;-60
2022/01/02 13:08:30;;;;;;;9.95;5.00;;;;;;;;;;6280048;28;20186;-61
2022/01/02 13:11:35;;;;;;;10.52;5.35;;;;;;;;;;6281331;28;20068;-60
2022/01/02 13:14:45;;;;;;;8.32;4.97;;;;;;;;;;6280080;28;20045;-59
2022/01/02 13:17:57;;;;;;;8.00;4.72;;;;;;;;;;6264118;28;20071;-59
2022/01/02 13:20:59;;;;;;;9.70;4.88;;;;;;;;;;6267485;28;20579;-60
2022/01/02 13:24:18;;;;;;;;;;;;;;;;;;6268684;28;20139;-61
2022/01/02 13:27:21;;;;;;;10.32;4.22;;;;;;;;;;6265320;28;19925;-60
2022/01/02 13:30:26;;;;;;;9.10;5.18;;;;;;;;;;6267375;28;20513;-56
2022/01/02 13:33:31;;;;;;;8.77;4.90;;;;;;;;;;6267829;28;20051;-60
2022/01/02 13:36:32;;;;;;;8.77;4.75;;;;;;;;;;6264355;28;20175;-58
2022/01/02 13:39:46;;;;;;;8.52;4.45;;;;;;;;;;6264486;28;20064;-60
2022/01/02 13:42:52;;;;;;;8.38;4.60;;;;;;;;;;6265485;28;20175;-58
2022/01/02 13:45:58;;;;;;;10.35;4.45;;;;;;;;;;6268479;28;20057;-56
2022/01/02 13:48:59;;;;;;;11.52;5.18;;;;;;;;;;6265901;28;20457;-60
2022/01/02 13:52:03;;;;;;;9.88;5.53;;;;;;;;;;6267211;28;20049;-62
2022/01/02 13:55:09;;;;;;;9.02;5.43;;;;;;;;;;6267202;28;20147;-62
2022/01/02 13:58:22;;;;;;;13.25;8.40;;;;;;;;;;6265570;28;20048;-60
2022/01/02 14:01:33;;;;;;;11.55;7.10;;;;;;;;;;6268895;28;20067;-59
2022/01/02 14:04:57;;;;;;;10.80;6.47;;;;;;;;;;6265281;28;20130;-62
2022/01/02 14:08:13;;;;;;;13.98;6.20;;;;;;;;;;6258565;28;21309;-61
2022/01/02 14:11:17;;;;;;;10.18;6.07;;;;;;;;;;6262958;28;20037;-61
2022/01/02 14:14:26;;;;;;;12.93;7.07;;;;;;;;;;6264770;28;20106;-61
2022/01/02 14:17:36;;;;;;;14.30;7.40;;;;;;;;;;6260517;28;20167;-59
2022/01/02 14:20:37;;;;;;;15.02;7.65;;;;;;;;;;6260488;28;20053;-62
2022/01/02 14:23:39;;;;;;;16.07;7.87;;;;;;;;;;6261074;28;20045;-62
2022/01/02 14:26:39;;;;;;;14.40;7.50;;;;;;;;;;6258445;28;20584;-61
2022/01/02 14:29:40;;;;;;;14.57;7.88;;;;;;;;;;6266251;28;20048;-61
2022/01/02 14:32:41;;;;;;;13.30;7.43;;;;;;;;;;6261849;28;20045;-61
2022/01/02 14:35:42;;;;;;;14.23;7.90;;;;;;;;;;6262153;28;20052;-61
2022/01/02 14:38:43;;;;;;;14.30;7.63;;;;;;;;;;6266800;28;20416;-61
2022/01/02 14:41:45;;;;;;;15.18;8.25;;;;;;;;;;6265864;28;20468;-60
2022/01/02 14:44:46;;;;;;;12.38;6.57;;;;;;;;;;6265180;28;20090;-61
2022/01/02 14:47:47;;;;;;;16.17;8.50;;;;;;;;;;6265895;28;20057;-61
2022/01/02 14:50:47;;;;;;;14.25;7.75;;;;;;;;;;6267585;28;20087;-61
2022/01/02 14:53:48;;;;;;;15.38;7.22;;;;;;;;;;6259884;28;20049;-60
2022/01/02 14:56:49;;;;;;;13.95;7.30;;;;;;;;;;6263306;28;20579;-61
2022/01/02 14:59:50;;;;;;;15.20;7.50;;;;;;;;;;6264514;28;20064;-65
2022/01/02 15:02:51;;;;;;;18.48;8.05;;;;;;;;;;6261555;28;20057;-60
2022/01/02 15:05:53;;;;;;;16.35;9.52;;;;;;;;;;6263554;28;20183;-61
2022/01/02 15:08:53;;;;;;;16.35;8.00;;;;;;;;;;6264049;28;20063;-60
2022/01/02 15:11:54;;;;;;;14.98;7.15;;;;;;;;;;6266154;28;20049;-60
2022/01/02 15:14:55;;;;;;;20.48;10.68;;;;;;;;;;6264129;28;20145;-61
2022/01/02 15:17:56;;;;;;;16.27;9.38;;;;;;;;;;6260318;28;20484;-61
2022/01/02 15:20:57;;;;;;;14.48;7.00;;;;;;;;;;6262414;28;20088;-60
2022/01/02 15:23:57;;;;;;;13.20;7.68;;;;;;;;;;6262741;28;20053;-61
2022/01/02 15:26:58;;;;;;;12.35;6.07;;;;;;;;;;6260247;28;20898;-61
2022/01/02 15:29:59;;;;;;;16.17;7.80;;;;;;;;;;6265311;28;20047;-61
2022/01/02 15:33:01;;;;;;;14.25;7.75;;;;;;;;;;6266500;28;20053;-61
2022/01/02 15:36:02;;;;;;;;;;;;;;;;;;6263290;28;20057;-61
2022/01/02 15:39:03;;;;;;;12.40;6.80;;;;;;;;;;6253907;28;19929;-61
2022/01/02 15:42:04;;;;;;;13.55;7.03;;;;;;;;;;6261814;28;20160;-61
2022/01/02 15:45:06;;;;;;;16.47;7.33;;;;;;;;;;6263239;28;21045;-60
2022/01/02 15:48:06;;;;;;;16.00;7.55;;;;;;;;;;6261269;28;20067;-61
2022/01/02 15:51:08;;;;;;;14.02;7.07;;;;;;;;;;6263892;28;20053;-61
2022/01/02 15:54:10;;;;;;;15.23;7.88;;;;;;;;;;6259546;28;20106;-61
2022/01/02 15:57:11;;;;;;;;;;;;;;;;;;6266845;28;20056;-61
2022/01/02 16:00:12;;;;;;;15.50;9.32;;;;;;;;;;6261924;28;20352;-62
2022/01/02 16:03:13;;;;;;;15.85;7.57;;;;;;;;;;6276724;28;20072;-61
2022/01/02 16:06:14;;;;;;;13.98;7.57;;;;;;;;;;6261773;28;20052;-61
2022/01/02 16:09:15;;;;;;;14.80;7.30;;;;;;;;;;6262925;28;20553;-61
2022/01/02 16:12:15;;;;;;;12.93;7.07;;;;;;;;;;6262103;28;20102;-61
2022/01/02 16:15:16;;;;;;;13.60;7.30;;;;;;;;;;6264015;28;20201;-62
2022/01/02 16:18:17;;;;;;;12.55;6.95;;;;;;;;;;6264037;28;20057;-61
2022/01/02 16:21:20;;;;;;;13.18;6.90;;;;;;;;;;6270295;28;20057;-61
2022/01/02 16:24:24;;;;;;;13.68;7.07;;;;;;;;;;6263212;28;20079;-60
2022/01/02 16:27:25;;;;;;;12.05;6.32;;;;;;;;;;6262097;28;20419;-61
2022/01/02 16:30:26;;;;;;;12.18;7.00;;;;;;;;;;6268992;28;20061;-60
2022/01/02 16:33:27;;;;;;;13.02;6.90;;;;;;;;;;6260432;28;20083;-61
2022/01/02 16:36:28;;;;;;;14.00;7.13;;;;;;;;;;6258323;28;20060;-61
2022/01/02 16:39:29;;;;;;;25.42;12.18;;;;;;;;;;6262481;28;20057;-62
2022/01/02 16:42:29;;;;;;;19.90;8.88;;;;;;;;;;6266713;28;20056;-62
2022/01/02 16:45:30;;;;;;;21.42;9.88;;;;;;;;;;6261166;28;20053;-61
2022/01/02 16:48:31;;;;;;;20.52;11.23;;;;;;;;;;6258555;28;20059;-61
2022/01/02 16:51:32;;;;;;;17.90;7.80;;;;;;;;;;6265393;28;20056;-61
2022/01/02 16:54:33;;;;;;;15.85;7.60;;;;;;;;;;6263459;28;20056;-61
2022/01/02 16:57:34;;;;;;;16.63;8.00;;;;;;;;;;6261436;28;20297;-61
2022/01/02 17:00:35;;;;;;;17.75;7.90;;;;;;;;;;6260053;28;20238;-61
2022/01/02 17:03:36;;;;;;;16.67;7.83;;;;;;;;;;6267573;28;20148;-61
2022/01/02 17:06:36;;;;;;;13.55;7.38;;;;;;;;;;6262734;28;20044;-61
2022/01/02 17:09:37;;;;;;;15.98;7.43;;;;;;;;;;6265688;28;20241;-61
2022/01/02 17:12:40;;;;;;;15.63;7.85;;;;;;;;;;6265308;28;20049;-61
2022/01/02 17:15:41;;;;;;;14.40;7.10;;;;;;;;;;6267566;28;20098;-61
2022/01/02 17:18:41;;;;;;;14.68;7.93;;;;;;;;;;6263680;28;20049;-61
2022/01/02 17:21:42;;;;;;;15.13;7.00;;;;;;;;;;6270059;28;20558;-60
2022/01/02 17:24:43;;;;;;;14.50;6.95;;;;;;;;;;6267930;28;20049;-61
2022/01/02 17:27:44;;;;;;;14.32;6.57;;;;;;;;;;6267154;28;20502;-61
2022/01/02 17:30:45;;;;;;;10.65;6.00;;;;;;;;;;6267020;28;20150;-61
2022/01/02 17:33:46;;;;;;;13.48;6.88;;;;;;;;;;6268440;28;20049;-61
2022/01/02 17:36:46;;;;;;;11.60;6.30;;;;;;;;;;6267601;28;20056;-61
2022/01/02 17:39:47;;;;;;;12.93;6.50;;;;;;;;;;6268821;28;20503;-61
2022/01/02 17:42:50;;;;;;;12.98;6.88;;;;;;;;;;6269533;28;20053;-61
2022/01/02 17:45:51;;;;;;;13.27;7.10;;;;;;;;;;6269860;28;20056;-61
2022/01/02 17:48:51;;;;;;;16.05;8.23;;;;;;;;;;6264143;28;20075;-62
2022/01/02 17:51:52;;;;;;;14.02;7.78;;;;;;;;;;6270732;28;20120;-61
2022/01/02 17:54:53;;;;;;;13.13;5.75;;;;;;;;;;6267506;28;20065;-62